Hebron, South Carolina
Current Conditions -  °F | °C
As of 6:55 PM on Monday 20 Oct 2014 (Local Time) from KCKI Reporting Station
Clear Clear  
Wind Chill: 64°   Ceiling: Unl
Heat Index: 64°   Visibility: 10mi
Dew Point: 61°   Wind: 3mph
Humidity: 88%   Direction: 110°ESE
Pressure: 29.99"   Gusts: NA
Location:  33.8014°N, 79.8006°W
Report Text: KCKI 202255Z AUTO 11003KT 10SM CLR 18/16 A2999 RMK AO2
Loading
Personal Weather Stations






























Interactive Weather Map
Tropical Storm Tracking
New forecast layout! Learn more

10-Day Weather Forecast

Advertisements
Track Severe Weather on mobile